Time;durP1;ratioP1;P1;durP2;ratioP2;P2;SDS_P1;SDS_P2;PMS_P1;PMS_P2;Temp;Humidity;BMP_temperature;BMP_pressure;BME280_temperature;BME280_humidity;BME280_pressure;Samples;Min_cycle;Max_cycle;Signal;HPM_P1;HPM_P2
2022/08/24 00:00:50;;;;;;;12.88;2.17;;;;;;;;;;4997742;28;20512;-74
2022/08/24 00:03:16;;;;;;;6.80;1.60;;;;;;;;;;4995035;28;20082;-75
2022/08/24 00:05:42;;;;;;;9.65;2.20;;;;;;;;;;5007969;28;20077;-74
2022/08/24 00:08:07;;;;;;;11.35;2.00;;;;;;;;;;5014549;28;20046;-74
2022/08/24 00:10:33;;;;;;;10.60;2.25;;;;;;;;;;5014188;28;20050;-73
2022/08/24 00:12:59;;;;;;;7.93;2.30;;;;;;;;;;5014755;28;20133;-75
2022/08/24 00:15:25;;;;;;;11.40;1.90;;;;;;;;;;5014338;28;20072;-72
2022/08/24 00:17:52;;;;;;;13.68;2.40;;;;;;;;;;4997753;28;20062;-75
2022/08/24 00:20:17;;;;;;;8.10;1.85;;;;;;;;;;4994788;28;20050;-74
2022/08/24 00:22:43;;;;;;;7.80;1.88;;;;;;;;;;4977222;28;20050;-75
2022/08/24 00:25:11;;;;;;;9.68;2.00;;;;;;;;;;4994445;28;20121;-74
2022/08/24 00:27:39;;;;;;;6.45;1.63;;;;;;;;;;4995277;28;20046;-76
2022/08/24 00:30:09;;;;;;;9.27;1.85;;;;;;;;;;4994674;28;20129;-73
2022/08/24 00:32:36;;;;;;;7.40;1.70;;;;;;;;;;4995346;28;20130;-73
2022/08/24 00:35:04;;;;;;;11.57;1.83;;;;;;;;;;5012217;28;20053;-73
2022/08/24 00:37:30;;;;;;;11.48;1.90;;;;;;;;;;5013666;28;20474;-74
2022/08/24 00:39:58;;;;;;;13.40;1.92;;;;;;;;;;5012348;28;20062;-75
2022/08/24 00:42:24;;;;;;;9.40;2.17;;;;;;;;;;5013418;28;20480;-74
2022/08/24 00:44:50;;;;;;;10.95;1.90;;;;;;;;;;5013552;28;20060;-74
2022/08/24 00:47:26;;;;;;;9.00;2.03;;;;;;;;;;5013669;28;20054;-74
2022/08/24 00:50:02;;;;;;;8.82;1.75;;;;;;;;;;4994865;28;20052;-75
2022/08/24 00:52:33;;;;;;;14.95;1.75;;;;;;;;;;5014105;28;20050;-74
2022/08/24 00:55:08;;;;;;;10.63;1.80;;;;;;;;;;5011685;28;20061;-73
2022/08/24 00:57:39;;;;;;;7.10;1.90;;;;;;;;;;5014389;28;20089;-73
2022/08/24 01:00:11;;;;;;;11.40;2.40;;;;;;;;;;5010963;28;20515;-73
2022/08/24 01:02:42;;;;;;;6.85;1.67;;;;;;;;;;5005291;28;20058;-74
2022/08/24 01:05:10;;;;;;;7.22;2.00;;;;;;;;;;5016410;28;20491;-73
2022/08/24 01:07:38;;;;;;;8.65;2.20;;;;;;;;;;5015077;28;20046;-72
2022/08/24 01:10:09;;;;;;;9.18;2.10;;;;;;;;;;5014707;28;20053;-75
2022/08/24 01:12:38;;;;;;;12.75;1.92;;;;;;;;;;5016494;28;20494;-74
2022/08/24 01:15:06;;;;;;;10.40;2.35;;;;;;;;;;5012998;28;20058;-72
2022/08/24 01:20:19;;;;;;;15.30;2.33;;;;;;;;;;5014392;28;20050;-73
2022/08/24 01:22:56;;;;;;;9.07;1.92;;;;;;;;;;5015414;28;20100;-73
2022/08/24 01:25:25;;;;;;;10.45;2.35;;;;;;;;;;5001654;28;20557;-71
2022/08/24 01:27:54;;;;;;;9.80;2.25;;;;;;;;;;4993379;28;20423;-72
2022/08/24 01:30:20;;;;;;;8.48;2.05;;;;;;;;;;4993669;28;20039;-73
2022/08/24 01:32:58;;;;;;;12.60;2.65;;;;;;;;;;4993512;28;20050;-73
2022/08/24 01:35:24;;;;;;;9.85;2.33;;;;;;;;;;4993657;28;20504;-73
2022/08/24 01:37:53;;;;;;;9.88;2.33;;;;;;;;;;4993556;28;20476;-73
2022/08/24 01:40:20;;;;;;;12.07;2.33;;;;;;;;;;4992063;28;20068;-73
2022/08/24 01:42:48;;;;;;;10.52;2.15;;;;;;;;;;4977418;28;20138;-72
2022/08/24 01:45:15;;;;;;;11.80;2.65;;;;;;;;;;4992091;28;20100;-72
2022/08/24 01:47:40;;;;;;;10.82;2.20;;;;;;;;;;4992746;28;20484;-74
2022/08/24 01:50:07;;;;;;;11.38;2.20;;;;;;;;;;4993252;28;20065;-72
2022/08/24 01:52:32;;;;;;;12.63;2.50;;;;;;;;;;4993948;28;20120;-72
2022/08/24 01:54:59;;;;;;;10.93;2.30;;;;;;;;;;4992738;28;20495;-71
2022/08/24 01:57:25;;;;;;;13.32;2.40;;;;;;;;;;4994013;28;20556;-73
2022/08/24 01:59:52;;;;;;;10.52;2.20;;;;;;;;;;4993225;28;20133;-72
2022/08/24 02:02:26;;;;;;;8.85;2.08;;;;;;;;;;4993486;28;20539;-72
2022/08/24 02:04:51;;;;;;;;;;;;;;;;;;4993002;28;20046;-74
2022/08/24 02:07:18;;;;;;;13.75;2.20;;;;;;;;;;4996049;28;19974;-66
2022/08/24 02:09:44;;;;;;;11.60;2.40;;;;;;;;;;5010958;28;20049;-66
2022/08/24 02:12:11;;;;;;;6.93;1.67;;;;;;;;;;5012266;28;20058;-66
2022/08/24 02:14:36;;;;;;;15.15;2.28;;;;;;;;;;4978161;28;20073;-68
2022/08/24 02:17:07;;;;;;;13.65;2.10;;;;;;;;;;5011359;28;20464;-66
2022/08/24 02:19:34;;;;;;;11.00;2.13;;;;;;;;;;5009782;28;20511;-65
2022/08/24 02:22:00;;;;;;;11.13;2.35;;;;;;;;;;5004199;28;20152;-67
2022/08/24 02:24:27;;;;;;;7.85;1.92;;;;;;;;;;4999379;28;20472;-66
2022/08/24 02:26:54;;;;;;;7.45;1.77;;;;;;;;;;5007012;28;20050;-69
2022/08/24 02:29:20;;;;;;;11.40;2.20;;;;;;;;;;5012822;28;20104;-65
2022/08/24 02:31:45;;;;;;;10.25;1.90;;;;;;;;;;5011474;28;20471;-70
2022/08/24 02:34:11;;;;;;;9.50;1.83;;;;;;;;;;4991833;28;20042;-65
2022/08/24 02:36:38;;;;;;;10.45;2.10;;;;;;;;;;4992145;28;20054;-65
2022/08/24 02:39:06;;;;;;;15.00;2.65;;;;;;;;;;4991783;28;20059;-65
2022/08/24 02:41:33;;;;;;;9.40;2.17;;;;;;;;;;4990862;28;20113;-67
2022/08/24 02:43:59;;;;;;;6.82;1.92;;;;;;;;;;4991288;28;20061;-66
2022/08/24 02:46:27;;;;;;;11.45;2.38;;;;;;;;;;4991335;28;20069;-65
2022/08/24 02:48:53;;;;;;;12.18;2.08;;;;;;;;;;4991518;28;20903;-65
2022/08/24 02:51:22;;;;;;;15.75;2.33;;;;;;;;;;4990975;28;20051;-70
2022/08/24 02:53:48;;;;;;;12.38;2.17;;;;;;;;;;4990517;28;20051;-66
2022/08/24 02:56:16;;;;;;;5.95;2.13;;;;;;;;;;4990474;28;20451;-66
2022/08/24 02:58:43;;;;;;;15.85;2.60;;;;;;;;;;4991019;28;20065;-66
2022/08/24 03:01:10;;;;;;;8.70;2.15;;;;;;;;;;4990914;28;20047;-65
2022/08/24 03:03:36;;;;;;;8.93;2.30;;;;;;;;;;5007520;28;20081;-65
2022/08/24 03:06:02;;;;;;;11.20;2.60;;;;;;;;;;5009723;28;20525;-67
2022/08/24 03:08:28;;;;;;;11.20;2.38;;;;;;;;;;4990658;28;20093;-67
2022/08/24 03:10:54;;;;;;;12.93;2.17;;;;;;;;;;4990000;28;20050;-68
2022/08/24 03:13:20;;;;;;;7.03;1.88;;;;;;;;;;4973253;28;20046;-66
2022/08/24 03:15:46;;;;;;;11.15;2.05;;;;;;;;;;4990688;28;20097;-65
2022/08/24 03:18:12;;;;;;;13.13;2.70;;;;;;;;;;4990606;28;20085;-67
2022/08/24 03:20:38;;;;;;;14.10;2.10;;;;;;;;;;4990525;28;20054;-67
2022/08/24 03:23:04;;;;;;;9.93;2.25;;;;;;;;;;4993200;28;20042;-67
2022/08/24 03:25:31;;;;;;;10.65;2.10;;;;;;;;;;5010889;28;20494;-65
2022/08/24 03:27:57;;;;;;;10.43;1.92;;;;;;;;;;5011133;28;20553;-68
2022/08/24 03:30:23;;;;;;;9.30;2.33;;;;;;;;;;5010211;28;20050;-66
2022/08/24 03:32:49;;;;;;;9.73;2.05;;;;;;;;;;5010571;28;20066;-66
2022/08/24 03:35:17;;;;;;;11.88;2.05;;;;;;;;;;5009515;28;20057;-66
2022/08/24 03:37:43;;;;;;;8.20;2.08;;;;;;;;;;5010289;28;20050;-67
2022/08/24 03:40:11;;;;;;;9.40;2.13;;;;;;;;;;5005719;28;20061;-64
2022/08/24 03:42:38;;;;;;;10.68;2.10;;;;;;;;;;4991092;28;20056;-66
2022/08/24 03:45:04;;;;;;;9.02;2.03;;;;;;;;;;4990517;28;20058;-65
2022/08/24 03:47:30;;;;;;;10.80;2.30;;;;;;;;;;4990396;28;20050;-67
2022/08/24 03:49:57;;;;;;;8.82;2.08;;;;;;;;;;4995021;28;20108;-65
2022/08/24 03:52:23;;;;;;;11.60;2.03;;;;;;;;;;5010842;28;20145;-67
2022/08/24 03:54:49;;;;;;;8.00;2.63;;;;;;;;;;5009361;28;20065;-66
2022/08/24 03:57:15;;;;;;;10.80;2.20;;;;;;;;;;5009523;28;20042;-66
2022/08/24 03:59:40;;;;;;;16.35;2.53;;;;;;;;;;5010378;28;20107;-67
2022/08/24 04:02:07;;;;;;;8.00;2.35;;;;;;;;;;5005597;28;20084;-68
2022/08/24 04:04:33;;;;;;;9.10;2.47;;;;;;;;;;5010228;28;20049;-66
2022/08/24 04:06:59;;;;;;;6.75;2.45;;;;;;;;;;5010500;28;20049;-68
2022/08/24 04:09:25;;;;;;;13.82;2.58;;;;;;;;;;5010957;28;20061;-66
2022/08/24 04:11:51;;;;;;;12.13;2.33;;;;;;;;;;5010478;28;20553;-67
2022/08/24 04:14:18;;;;;;;10.88;2.63;;;;;;;;;;5006073;28;20423;-68
2022/08/24 04:16:44;;;;;;;11.13;2.47;;;;;;;;;;4990940;28;20090;-69
2022/08/24 04:19:12;;;;;;;11.98;2.38;;;;;;;;;;4992516;28;20074;-66
2022/08/24 04:21:37;;;;;;;12.02;2.63;;;;;;;;;;5011577;28;20049;-68
2022/08/24 04:24:06;;;;;;;11.82;2.55;;;;;;;;;;5001283;28;20468;-67
2022/08/24 04:26:31;;;;;;;16.40;3.08;;;;;;;;;;4990342;28;20081;-65
2022/08/24 04:28:58;;;;;;;11.43;2.70;;;;;;;;;;4993758;28;20054;-67
2022/08/24 04:31:25;;;;;;;15.48;2.92;;;;;;;;;;4996233;28;20117;-67
2022/08/24 04:33:51;;;;;;;13.20;2.47;;;;;;;;;;4995403;28;20074;-65
2022/08/24 04:36:20;;;;;;;15.63;2.40;;;;;;;;;;4995513;28;20492;-68
2022/08/24 04:38:47;;;;;;;12.38;2.88;;;;;;;;;;4993972;28;20130;-66
2022/08/24 04:41:13;;;;;;;9.63;3.03;;;;;;;;;;4993825;28;20181;-65
2022/08/24 04:43:44;;;;;;;14.73;3.10;;;;;;;;;;4994802;28;20420;-67
2022/08/24 04:46:13;;;;;;;12.77;2.58;;;;;;;;;;4994505;28;20527;-67
2022/08/24 04:48:40;;;;;;;11.60;2.50;;;;;;;;;;4996082;28;20562;-67
2022/08/24 04:51:08;;;;;;;9.85;2.42;;;;;;;;;;4995152;28;20046;-67
2022/08/24 04:53:36;;;;;;;11.95;2.50;;;;;;;;;;4994472;28;20118;-65
2022/08/24 04:56:02;;;;;;;12.32;2.22;;;;;;;;;;4996660;28;20109;-66
2022/08/24 04:58:29;;;;;;;11.85;2.60;;;;;;;;;;5013507;28;20050;-68
2022/08/24 05:00:56;;;;;;;11.07;2.90;;;;;;;;;;5014280;28;20085;-64
2022/08/24 05:03:22;;;;;;;13.57;3.03;;;;;;;;;;5014186;28;20092;-67
2022/08/24 05:05:50;;;;;;;14.20;2.30;;;;;;;;;;4996724;28;20570;-65
2022/08/24 05:08:18;;;;;;;9.52;2.70;;;;;;;;;;5014286;28;20073;-66
2022/08/24 05:10:46;;;;;;;8.02;1.95;;;;;;;;;;5013747;28;20068;-70
2022/08/24 05:13:13;;;;;;;8.30;1.90;;;;;;;;;;5007609;28;20081;-70
2022/08/24 05:15:47;;;;;;;11.95;2.30;;;;;;;;;;4992883;28;20054;-66
2022/08/24 05:18:14;;;;;;;9.40;2.47;;;;;;;;;;4976604;28;20089;-67
2022/08/24 05:20:42;;;;;;;11.43;2.78;;;;;;;;;;4993469;28;20047;-65
2022/08/24 05:23:08;;;;;;;13.65;2.80;;;;;;;;;;4993749;28;20054;-67
2022/08/24 05:25:35;;;;;;;9.23;2.47;;;;;;;;;;4992601;28;20051;-67
2022/08/24 05:28:01;;;;;;;13.13;2.50;;;;;;;;;;4993353;28;20125;-69
2022/08/24 05:30:26;;;;;;;15.88;2.30;;;;;;;;;;4993644;28;20157;-66
2022/08/24 05:32:52;;;;;;;11.15;2.45;;;;;;;;;;4994050;28;20508;-67
2022/08/24 05:35:18;;;;;;;17.73;2.95;;;;;;;;;;4993388;28;20527;-66
2022/08/24 05:37:44;;;;;;;9.90;2.85;;;;;;;;;;4976566;28;20058;-67
2022/08/24 05:40:13;;;;;;;6.57;2.30;;;;;;;;;;4993751;28;20069;-67
2022/08/24 05:42:39;;;;;;;7.88;2.05;;;;;;;;;;4994900;28;20106;-67
2022/08/24 05:45:06;;;;;;;13.95;2.58;;;;;;;;;;4976714;28;20584;-68
2022/08/24 05:47:33;;;;;;;10.48;2.47;;;;;;;;;;4994612;28;20042;-70
2022/08/24 05:50:00;;;;;;;9.15;2.47;;;;;;;;;;4997461;28;20053;-67
2022/08/24 05:52:27;;;;;;;9.38;2.20;;;;;;;;;;5013340;28;20054;-70
2022/08/24 05:54:56;;;;;;;14.23;2.65;;;;;;;;;;5011712;28;20046;-67
2022/08/24 05:57:24;;;;;;;13.18;2.30;;;;;;;;;;5012126;28;20085;-66
2022/08/24 05:59:50;;;;;;;8.88;2.33;;;;;;;;;;5013202;28;20107;-67
2022/08/24 06:02:17;;;;;;;13.27;2.20;;;;;;;;;;5013423;28;20050;-69
2022/08/24 06:04:44;;;;;;;9.13;2.63;;;;;;;;;;5013183;28;20057;-72
2022/08/24 06:07:11;;;;;;;10.13;2.13;;;;;;;;;;5012897;28;20049;-67
2022/08/24 06:09:38;;;;;;;9.70;2.30;;;;;;;;;;5011725;28;20511;-67
2022/08/24 06:12:05;;;;;;;8.20;1.95;;;;;;;;;;5012946;28;20038;-67
2022/08/24 06:14:33;;;;;;;12.93;2.40;;;;;;;;;;5012343;28;20050;-71
2022/08/24 06:17:00;;;;;;;8.98;2.22;;;;;;;;;;5011852;28;20499;-65
2022/08/24 06:19:27;;;;;;;10.60;2.30;;;;;;;;;;5012217;28;20153;-69
2022/08/24 06:21:53;;;;;;;10.40;2.63;;;;;;;;;;5012070;28;20095;-67
2022/08/24 06:27:22;;;;;;;15.15;2.45;;;;;;;;;;4950613;29;20098;-67
2022/08/24 06:29:54;;;;;;;10.93;2.80;;;;;;;;;;4951910;29;20063;-67
2022/08/24 06:32:20;;;;;;;15.57;2.80;;;;;;;;;;4932844;29;20127;-68
2022/08/24 06:34:46;;;;;;;8.75;3.10;;;;;;;;;;4932677;29;20123;-67
2022/08/24 06:37:12;;;;;;;9.05;2.50;;;;;;;;;;4918227;29;20481;-69
2022/08/24 06:39:38;;;;;;;8.93;2.92;;;;;;;;;;4938196;29;20066;-66
2022/08/24 06:42:05;;;;;;;9.75;2.50;;;;;;;;;;4952566;28;20558;-69
2022/08/24 06:44:31;;;;;;;11.25;2.70;;;;;;;;;;4951526;28;20050;-67
2022/08/24 06:46:57;;;;;;;15.15;3.30;;;;;;;;;;4949851;29;20102;-66
2022/08/24 06:49:23;;;;;;;18.77;3.38;;;;;;;;;;4951117;28;20134;-68
2022/08/24 06:51:50;;;;;;;11.45;3.40;;;;;;;;;;4949900;28;20073;-68
2022/08/24 06:54:19;;;;;;;11.48;3.05;;;;;;;;;;4950094;28;20065;-68
2022/08/24 06:56:45;;;;;;;10.95;2.67;;;;;;;;;;4934237;29;20067;-68
2022/08/24 06:59:11;;;;;;;10.18;2.50;;;;;;;;;;4950970;28;20122;-66
2022/08/24 07:01:37;;;;;;;14.13;2.80;;;;;;;;;;4951352;28;20385;-70
2022/08/24 07:04:03;;;;;;;11.23;2.65;;;;;;;;;;4962659;28;20062;-68
2022/08/24 07:06:29;;;;;;;12.63;2.65;;;;;;;;;;5013096;28;20046;-68
2022/08/24 07:08:55;;;;;;;12.15;2.92;;;;;;;;;;5012809;28;20776;-67
2022/08/24 07:11:23;;;;;;;8.45;2.90;;;;;;;;;;5011633;28;20050;-67
2022/08/24 07:13:49;;;;;;;16.80;3.25;;;;;;;;;;5001340;28;20495;-69
2022/08/24 07:16:19;;;;;;;13.63;2.63;;;;;;;;;;4992242;28;20189;-67
2022/08/24 07:18:46;;;;;;;9.63;2.85;;;;;;;;;;4992200;28;20495;-67
2022/08/24 07:21:12;;;;;;;8.40;2.30;;;;;;;;;;4992390;28;20094;-67
2022/08/24 07:23:38;;;;;;;9.38;2.33;;;;;;;;;;4990531;28;20050;-67
2022/08/24 07:26:09;;;;;;;8.52;2.28;;;;;;;;;;4990671;28;20054;-67
2022/08/24 07:28:39;;;;;;;7.07;2.20;;;;;;;;;;4991685;28;20050;-70
2022/08/24 07:31:08;;;;;;;12.73;2.55;;;;;;;;;;4992267;28;20054;-72
2022/08/24 07:33:34;;;;;;;10.57;2.30;;;;;;;;;;4992229;28;20480;-69
2022/08/24 07:36:00;;;;;;;13.88;2.95;;;;;;;;;;4992247;28;20053;-68
2022/08/24 07:38:27;;;;;;;13.07;2.83;;;;;;;;;;4991993;28;20100;-70
2022/08/24 07:40:53;;;;;;;17.90;2.72;;;;;;;;;;4990752;28;20057;-67
2022/08/24 07:43:22;;;;;;;10.35;2.65;;;;;;;;;;4991122;28;20038;-69
2022/08/24 07:45:50;;;;;;;7.78;2.42;;;;;;;;;;4990912;28;20079;-68
2022/08/24 07:48:16;;;;;;;8.73;2.50;;;;;;;;;;4992041;28;20051;-68
2022/08/24 07:50:43;;;;;;;9.95;2.45;;;;;;;;;;4991819;28;20416;-69
2022/08/24 07:53:09;;;;;;;8.98;2.72;;;;;;;;;;4991826;28;20065;-67
2022/08/24 07:55:35;;;;;;;8.82;2.85;;;;;;;;;;4996492;28;20144;-68
2022/08/24 07:58:01;;;;;;;7.25;3.08;;;;;;;;;;5010633;28;20071;-66
2022/08/24 08:00:27;;;;;;;8.38;2.75;;;;;;;;;;5011318;28;20081;-67
2022/08/24 08:02:55;;;;;;;13.15;2.90;;;;;;;;;;5011227;28;20049;-66
2022/08/24 08:05:22;;;;;;;11.23;3.13;;;;;;;;;;5014042;28;20396;-67
2022/08/24 08:07:49;;;;;;;12.30;2.90;;;;;;;;;;5014250;28;20054;-67
2022/08/24 08:10:16;;;;;;;10.20;2.53;;;;;;;;;;5013523;28;20221;-69
2022/08/24 08:12:41;;;;;;;9.55;2.75;;;;;;;;;;5007312;28;20069;-68
2022/08/24 08:15:09;;;;;;;13.25;3.30;;;;;;;;;;4995011;28;20265;-68
2022/08/24 08:17:36;;;;;;;9.20;2.60;;;;;;;;;;4994373;28;20061;-68
2022/08/24 08:20:08;;;;;;;9.80;2.63;;;;;;;;;;4996383;28;20507;-69
2022/08/24 08:25:19;;;;;;;12.32;2.80;;;;;;;;;;4994813;28;20054;-68
2022/08/24 08:27:45;;;;;;;8.13;2.65;;;;;;;;;;4994578;28;20060;-68
2022/08/24 08:30:12;;;;;;;12.30;2.35;;;;;;;;;;5005859;28;20042;-69
2022/08/24 08:32:38;;;;;;;8.25;2.65;;;;;;;;;;5015879;28;20132;-72
2022/08/24 08:35:04;;;;;;;12.55;3.13;;;;;;;;;;5013479;28;20050;-68
2022/08/24 08:37:30;;;;;;;9.05;2.20;;;;;;;;;;5013145;28;20052;-66
2022/08/24 08:39:56;;;;;;;10.23;2.83;;;;;;;;;;5013012;28;20168;-68
2022/08/24 08:42:37;;;;;;;9.10;2.50;;;;;;;;;;5014399;28;20124;-68
2022/08/24 08:45:08;;;;;;;8.52;2.30;;;;;;;;;;5013930;28;20495;-69
2022/08/24 08:47:37;;;;;;;10.77;2.40;;;;;;;;;;5012753;28;20128;-67
2022/08/24 08:50:06;;;;;;;7.25;2.70;;;;;;;;;;4995616;28;20042;-67
2022/08/24 08:52:53;;;;;;;9.82;2.35;;;;;;;;;;5013397;28;20054;-67
2022/08/24 08:55:26;;;;;;;6.28;2.28;;;;;;;;;;4995011;28;20042;-71
2022/08/24 08:58:19;;;;;;;15.77;2.97;;;;;;;;;;5014048;28;20050;-69
2022/08/24 09:00:54;;;;;;;8.73;2.67;;;;;;;;;;5013598;28;20097;-69
2022/08/24 09:03:32;;;;;;;6.55;2.08;;;;;;;;;;5009071;28;20596;-67
2022/08/24 09:06:15;;;;;;;8.95;2.30;;;;;;;;;;4992980;28;20081;-68
2022/08/24 09:09:05;;;;;;;7.07;2.10;;;;;;;;;;4993200;28;20108;-67
2022/08/24 09:11:34;;;;;;;13.32;2.55;;;;;;;;;;4992678;28;20054;-68
2022/08/24 09:14:03;;;;;;;7.07;2.20;;;;;;;;;;4994014;28;20408;-67
2022/08/24 09:16:52;;;;;;;7.30;2.47;;;;;;;;;;4992230;28;20134;-70
2022/08/24 09:19:50;;;;;;;10.85;2.50;;;;;;;;;;4993141;28;20484;-70
2022/08/24 09:22:19;;;;;;;9.82;2.47;;;;;;;;;;4997625;28;20144;-69
2022/08/24 09:24:51;;;;;;;8.90;2.38;;;;;;;;;;4994360;28;20081;-69
2022/08/24 09:27:51;;;;;;;9.00;2.47;;;;;;;;;;4996134;28;20046;-68
2022/08/24 09:30:22;;;;;;;5.28;1.83;;;;;;;;;;5014209;28;20049;-72
2022/08/24 09:33:03;;;;;;;7.85;2.63;;;;;;;;;;5016253;28;20050;-70
2022/08/24 09:35:41;;;;;;;9.68;2.25;;;;;;;;;;5015184;28;20046;-70
2022/08/24 09:38:16;;;;;;;10.10;2.40;;;;;;;;;;4996888;28;20054;-70
2022/08/24 09:40:54;;;;;;;9.77;2.30;;;;;;;;;;5013909;28;20046;-67
2022/08/24 09:43:48;;;;;;;8.63;2.40;;;;;;;;;;4997511;28;20052;-68
2022/08/24 09:46:59;;;;;;;6.25;2.03;;;;;;;;;;5015883;28;20060;-68
2022/08/24 09:49:42;;;;;;;11.27;2.35;;;;;;;;;;5006562;28;20065;-71
2022/08/24 09:52:15;;;;;;;10.30;2.70;;;;;;;;;;5014831;28;20054;-66
2022/08/24 09:54:59;;;;;;;8.55;2.58;;;;;;;;;;5006495;28;20050;-68
2022/08/24 09:57:28;;;;;;;8.02;2.47;;;;;;;;;;4977507;28;20057;-67
2022/08/24 10:00:11;;;;;;;9.63;2.47;;;;;;;;;;4994441;28;20053;-67
2022/08/24 10:02:59;;;;;;;10.82;2.55;;;;;;;;;;4993986;28;20050;-66
2022/08/24 10:05:47;;;;;;;8.70;2.50;;;;;;;;;;4993867;28;20047;-67
2022/08/24 10:08:30;;;;;;;6.22;2.47;;;;;;;;;;5006775;28;20058;-69
2022/08/24 10:11:28;;;;;;;9.63;2.40;;;;;;;;;;5014501;28;20051;-67
2022/08/24 10:14:15;;;;;;;12.18;2.70;;;;;;;;;;4974477;28;20057;-68
2022/08/24 10:17:08;;;;;;;7.10;2.40;;;;;;;;;;5012962;28;20084;-70
2022/08/24 10:19:49;;;;;;;9.88;2.40;;;;;;;;;;5013841;28;20077;-70
2022/08/24 10:22:49;;;;;;;11.82;3.22;;;;;;;;;;5012571;28;20129;-68
2022/08/24 10:25:30;;;;;;;8.25;2.20;;;;;;;;;;5011035;28;20539;-67
2022/08/24 10:28:30;;;;;;;6.80;2.28;;;;;;;;;;5010806;28;20100;-67
2022/08/24 10:31:09;;;;;;;9.68;2.45;;;;;;;;;;5011191;28;20506;-69
2022/08/24 10:36:43;;;;;;;17.88;3.25;;;;;;;;;;5011231;28;20057;-67
2022/08/24 10:39:47;;;;;;;7.20;2.40;;;;;;;;;;4994670;28;20111;-69
2022/08/24 10:45:48;;;;;;;7.45;2.20;;;;;;;;;;5008375;28;19928;-69
2022/08/24 10:48:38;;;;;;;9.38;2.47;;;;;;;;;;4992827;28;20419;-70
2022/08/24 10:51:22;;;;;;;9.93;2.47;;;;;;;;;;4992199;28;20118;-67
2022/08/24 10:53:51;;;;;;;9.73;2.58;;;;;;;;;;4992924;28;20537;-68
2022/08/24 10:56:20;;;;;;;10.57;2.10;;;;;;;;;;5011573;28;20054;-68
2022/08/24 10:58:50;;;;;;;10.20;2.55;;;;;;;;;;5011963;28;20471;-68
2022/08/24 11:01:22;;;;;;;9.68;2.13;;;;;;;;;;5011502;28;20050;-70
2022/08/24 11:04:00;;;;;;;9.60;2.28;;;;;;;;;;4995736;28;20050;-70
2022/08/24 11:06:30;;;;;;;14.32;2.92;;;;;;;;;;4992459;28;21114;-68
2022/08/24 11:09:17;;;;;;;11.15;2.78;;;;;;;;;;4991821;28;20867;-68
2022/08/24 11:11:45;;;;;;;9.38;2.30;;;;;;;;;;4991905;28;20468;-68
2022/08/24 11:14:14;;;;;;;6.55;2.40;;;;;;;;;;4992673;28;20412;-68
2022/08/24 11:16:43;;;;;;;9.88;2.50;;;;;;;;;;4991174;28;20051;-67
2022/08/24 11:19:13;;;;;;;7.90;2.35;;;;;;;;;;4992034;28;20049;-68
2022/08/24 11:21:44;;;;;;;9.60;2.50;;;;;;;;;;4990932;28;20042;-69
2022/08/24 11:24:42;;;;;;;13.85;2.40;;;;;;;;;;4991127;28;20074;-69
2022/08/24 11:27:14;;;;;;;9.95;2.28;;;;;;;;;;4991613;28;20058;-71
2022/08/24 11:29:49;;;;;;;8.27;2.33;;;;;;;;;;4973994;28;20043;-67
2022/08/24 11:32:41;;;;;;;7.38;2.58;;;;;;;;;;4993016;28;20533;-70
2022/08/24 11:35:25;;;;;;;11.85;2.50;;;;;;;;;;4985565;28;20055;-69
2022/08/24 11:37:55;;;;;;;7.15;2.42;;;;;;;;;;4993411;28;20058;-69
2022/08/24 11:40:27;;;;;;;10.25;2.65;;;;;;;;;;4992413;28;20054;-68
2022/08/24 11:43:27;;;;;;;9.38;2.42;;;;;;;;;;4991652;28;20129;-67
2022/08/24 11:46:17;;;;;;;10.55;2.67;;;;;;;;;;4991155;28;20050;-69
2022/08/24 11:49:00;;;;;;;9.48;2.67;;;;;;;;;;4991417;28;20051;-67
2022/08/24 11:51:45;;;;;;;8.82;2.70;;;;;;;;;;4991929;28;20674;-73
2022/08/24 11:54:29;;;;;;;14.00;3.10;;;;;;;;;;4974074;28;20050;-70
2022/08/24 11:56:56;;;;;;;14.27;2.92;;;;;;;;;;4990438;28;20038;-70
2022/08/24 11:59:38;;;;;;;14.77;2.60;;;;;;;;;;4990655;28;20057;-69
2022/08/24 12:02:10;;;;;;;10.07;2.47;;;;;;;;;;4991161;28;20059;-67
2022/08/24 12:05:05;;;;;;;10.57;2.90;;;;;;;;;;4973447;28;20054;-67
2022/08/24 12:08:01;;;;;;;8.63;2.38;;;;;;;;;;4990816;28;20046;-69
2022/08/24 12:11:04;;;;;;;11.48;2.85;;;;;;;;;;4995729;28;20053;-68
2022/08/24 12:13:52;;;;;;;12.98;2.83;;;;;;;;;;5010307;28;20443;-69
2022/08/24 12:17:07;;;;;;;10.07;2.55;;;;;;;;;;5009721;28;20054;-69
2022/08/24 12:19:39;;;;;;;9.60;2.58;;;;;;;;;;4931544;29;20047;-69
2022/08/24 12:22:07;;;;;;;11.93;2.43;;;;;;;;;;4937298;28;20091;-67
2022/08/24 12:24:44;;;;;;;11.43;2.90;;;;;;;;;;4949636;28;20292;-68
2022/08/24 12:27:23;;;;;;;12.20;3.00;;;;;;;;;;4947456;28;20182;-69
2022/08/24 12:29:57;;;;;;;9.98;2.95;;;;;;;;;;4930196;29;20078;-69
2022/08/24 12:32:29;;;;;;;6.90;2.70;;;;;;;;;;4930910;29;20102;-67
2022/08/24 12:35:06;;;;;;;14.23;3.70;;;;;;;;;;4933265;29;20406;-67
2022/08/24 12:37:57;;;;;;;9.45;3.85;;;;;;;;;;4931313;29;20088;-67
2022/08/24 12:41:02;;;;;;;14.35;4.30;;;;;;;;;;4931393;29;20091;-70
2022/08/24 12:43:43;;;;;;;6.38;2.45;;;;;;;;;;4928402;29;20523;-67
2022/08/24 12:46:12;;;;;;;10.73;2.78;;;;;;;;;;4950787;28;20651;-69
2022/08/24 12:48:41;;;;;;;26.05;10.40;;;;;;;;;;4936516;29;20047;-68
2022/08/24 12:51:19;;;;;;;7.05;2.25;;;;;;;;;;4952501;28;20063;-68
2022/08/24 12:54:15;;;;;;;7.22;2.30;;;;;;;;;;4952928;28;20051;-68
2022/08/24 12:56:47;;;;;;;9.07;1.80;;;;;;;;;;4986325;28;20112;-71
2022/08/24 12:59:31;;;;;;;6.90;1.90;;;;;;;;;;5016972;28;20057;-67
2022/08/24 13:02:06;;;;;;;;;;;;;;;;;;5006261;28;20181;-66
2022/08/24 13:04:50;;;;;;;7.13;1.63;;;;;;;;;;4995528;28;20403;-70
2022/08/24 13:07:30;;;;;;;10.15;1.65;;;;;;;;;;4994805;28;20077;-70
2022/08/24 13:09:59;;;;;;;3.53;1.13;;;;;;;;;;5003945;28;20058;-68
2022/08/24 13:12:37;;;;;;;4.25;1.70;;;;;;;;;;5014456;28;20049;-69
2022/08/24 13:15:21;;;;;;;8.18;1.65;;;;;;;;;;5013401;28;20155;-68
2022/08/24 13:17:55;;;;;;;10.05;1.95;;;;;;;;;;5013444;28;20046;-67
2022/08/24 13:20:23;;;;;;;10.40;2.10;;;;;;;;;;4996157;28;20046;-67
2022/08/24 13:23:11;;;;;;;11.98;2.00;;;;;;;;;;4993975;28;20042;-67
2022/08/24 13:25:47;;;;;;;7.90;1.88;;;;;;;;;;4993701;28;20051;-68
2022/08/24 13:28:21;;;;;;;5.50;1.60;;;;;;;;;;4993528;28;20061;-67
2022/08/24 13:30:56;;;;;;;6.88;2.00;;;;;;;;;;4993720;28;20058;-69
2022/08/24 13:33:29;;;;;;;6.00;1.70;;;;;;;;;;4993281;28;20121;-68
2022/08/24 13:36:04;;;;;;;5.57;1.50;;;;;;;;;;4993733;28;20050;-68
2022/08/24 13:38:47;;;;;;;5.22;1.50;;;;;;;;;;4993493;28;20049;-68
2022/08/24 13:41:48;;;;;;;5.25;1.60;;;;;;;;;;4993639;28;20137;-67
2022/08/24 13:44:48;;;;;;;5.15;1.60;;;;;;;;;;4967743;28;20046;-69
2022/08/24 13:47:43;;;;;;;6.35;1.80;;;;;;;;;;5012508;28;20123;-69
2022/08/24 13:50:38;;;;;;;7.32;1.55;;;;;;;;;;5013452;28;20053;-68
2022/08/24 13:53:26;;;;;;;9.05;1.60;;;;;;;;;;4975333;28;20074;-70
2022/08/24 13:55:51;;;;;;;11.10;1.70;;;;;;;;;;5013494;28;20080;-69
2022/08/24 13:58:44;;;;;;;10.82;1.35;;;;;;;;;;5015141;28;20053;-68
2022/08/24 14:01:40;;;;;;;8.65;1.67;;;;;;;;;;5013222;28;20385;-67
2022/08/24 14:04:20;;;;;;;7.97;1.50;;;;;;;;;;5012794;28;20129;-68
2022/08/24 14:06:59;;;;;;;7.32;1.50;;;;;;;;;;4995148;28;20050;-71
2022/08/24 14:09:46;;;;;;;6.57;1.75;;;;;;;;;;5007819;28;20415;-69
2022/08/24 14:12:25;;;;;;;12.77;1.83;;;;;;;;;;4993010;28;20484;-70
2022/08/24 14:15:00;;;;;;;8.02;2.00;;;;;;;;;;4993434;28;20089;-66
2022/08/24 14:17:58;;;;;;;7.72;1.48;;;;;;;;;;4992599;28;20061;-66
2022/08/24 14:20:55;;;;;;;11.93;1.70;;;;;;;;;;5012254;28;20407;-68
2022/08/24 14:23:32;;;;;;;6.78;1.48;;;;;;;;;;5012706;28;20439;-68
2022/08/24 14:26:33;;;;;;;10.20;2.28;;;;;;;;;;5011513;28;20053;-69
2022/08/24 14:29:14;;;;;;;6.32;2.30;;;;;;;;;;5013321;28;20058;-68
2022/08/24 14:32:04;;;;;;;5.57;1.75;;;;;;;;;;5012862;28;20609;-70
2022/08/24 14:34:32;;;;;;;6.70;1.70;;;;;;;;;;5003094;28;20049;-69
2022/08/24 14:36:58;;;;;;;5.05;1.70;;;;;;;;;;4996830;28;20152;-69
2022/08/24 14:39:53;;;;;;;7.13;1.60;;;;;;;;;;5014078;28;20529;-70
2022/08/24 14:42:34;;;;;;;5.85;1.88;;;;;;;;;;5013051;28;20132;-68
2022/08/24 14:45:09;;;;;;;8.32;2.20;;;;;;;;;;5011147;28;20050;-68
2022/08/24 14:48:06;;;;;;;10.85;1.77;;;;;;;;;;5014392;28;20180;-67
2022/08/24 14:50:44;;;;;;;3.92;1.40;;;;;;;;;;5012031;28;20046;-68
2022/08/24 14:53:48;;;;;;;7.03;1.80;;;;;;;;;;5011128;28;20140;-71
2022/08/24 14:56:14;;;;;;;;;;;;;;;;;;5011087;28;20497;-67
2022/08/24 14:59:00;;;;;;;6.50;1.73;;;;;;;;;;5011119;28;19952;-68
2022/08/24 15:01:41;;;;;;;6.20;1.60;;;;;;;;;;5010747;28;20100;-69
2022/08/24 15:04:34;;;;;;;5.03;1.60;;;;;;;;;;5013541;28;20056;-69
2022/08/24 15:07:22;;;;;;;9.73;1.45;;;;;;;;;;5011777;28;20052;-69
2022/08/24 15:09:49;;;;;;;7.15;2.00;;;;;;;;;;5003993;28;20060;-69
2022/08/24 15:12:29;;;;;;;12.35;2.35;;;;;;;;;;5010760;28;20176;-69
2022/08/24 15:15:34;;;;;;;10.18;2.10;;;;;;;;;;5010681;28;20622;-70
2022/08/24 15:18:25;;;;;;;10.32;1.70;;;;;;;;;;5007815;28;20060;-68
2022/08/24 15:21:29;;;;;;;10.00;2.08;;;;;;;;;;5012141;28;20088;-70
2022/08/24 15:23:54;;;;;;;;;;;;;;;;;;4932340;29;20047;-70
2022/08/24 15:26:49;;;;;;;9.63;1.70;;;;;;;;;;4932135;29;19954;-71
2022/08/24 15:29:21;;;;;;;14.52;2.38;;;;;;;;;;4933909;29;20098;-70